createdAt,value
2022-10-05T00:01:21.041Z,0
2022-10-05T00:06:31.244Z,0
2022-10-05T00:11:40.313Z,0
2022-10-05T00:16:52.057Z,0
2022-10-05T00:22:09.166Z,0
2022-10-05T00:27:26.433Z,0
2022-10-05T00:32:46.693Z,0
2022-10-05T00:38:03.236Z,0
2022-10-05T00:43:20.844Z,0
2022-10-05T00:48:37.160Z,0
2022-10-05T00:53:53.001Z,0
2022-10-05T00:58:20.765Z,0
2022-10-05T01:04:27.398Z,0
2022-10-05T01:09:44.182Z,0
2022-10-05T01:20:17.169Z,0
2022-10-05T01:25:33.163Z,0
2022-10-05T01:30:49.475Z,0
2022-10-05T01:36:05.490Z,0
2022-10-05T01:41:20.995Z,0
2022-10-05T01:46:37.214Z,0
2022-10-05T01:51:54.599Z,0
2022-10-05T01:56:21.562Z,0
2022-10-05T02:01:17.417Z,0
2022-10-05T02:06:26.102Z,0
2022-10-05T02:11:33.925Z,0
2022-10-05T02:16:44.277Z,0
2022-10-05T02:21:53.446Z,0
2022-10-05T02:27:02.569Z,0
2022-10-05T02:32:13.599Z,0
2022-10-05T02:37:22.717Z,0
2022-10-05T02:42:32.474Z,0
2022-10-05T02:47:42.873Z,0
2022-10-05T02:52:52.636Z,0
2022-10-05T02:58:03.705Z,0
2022-10-05T03:03:10.924Z,0
2022-10-05T03:08:20.634Z,0
2022-10-05T03:13:29.125Z,0
2022-10-05T03:18:38.236Z,0
2022-10-05T03:23:46.714Z,0
2022-10-05T03:28:58.335Z,0
2022-10-05T03:34:14.143Z,0
2022-10-05T03:39:30.325Z,0
2022-10-05T03:44:45.183Z,0
2022-10-05T03:50:00.725Z,0
2022-10-05T03:55:16.901Z,0
2022-10-05T04:00:33.027Z,0
2022-10-05T04:05:47.899Z,0
2022-10-05T04:10:10.118Z,0
2022-10-05T04:15:23.637Z,0
2022-10-05T04:20:30.882Z,0
2022-10-05T04:25:40.004Z,0
2022-10-05T04:30:50.403Z,0
2022-10-05T04:35:58.918Z,0
2022-10-05T04:41:09.312Z,0
2022-10-05T04:46:19.940Z,0
2022-10-05T04:51:29.440Z,0
2022-10-05T04:56:38.572Z,0
2022-10-05T05:01:47.043Z,0
2022-10-05T05:06:56.229Z,0
2022-10-05T05:12:05.279Z,0
2022-10-05T05:17:15.677Z,1
2022-10-05T05:22:25.437Z,2
2022-10-05T05:27:37.769Z,4
2022-10-05T05:32:46.884Z,8
2022-10-05T05:37:55.372Z,13
2022-10-05T05:43:03.840Z,20
2022-10-05T05:48:14.018Z,33
2022-10-05T05:53:22.989Z,51
2022-10-05T05:58:39.096Z,54
2022-10-05T06:03:56.100Z,71
2022-10-05T06:09:13.958Z,116
2022-10-05T06:14:30.129Z,112
2022-10-05T06:19:46.926Z,119
2022-10-05T06:25:03.886Z,160
2022-10-05T06:30:20.931Z,198
2022-10-05T06:34:49.880Z,214
2022-10-05T06:39:46.721Z,234
2022-10-05T06:44:56.482Z,255
2022-10-05T06:50:05.606Z,265
2022-10-05T06:55:14.586Z,292
2022-10-05T07:00:26.111Z,328
2022-10-05T07:05:35.525Z,351
2022-10-05T07:10:44.640Z,373
2022-10-05T07:15:56.968Z,396
2022-10-05T07:21:04.172Z,439
2022-10-05T07:26:13.294Z,417
2022-10-05T07:31:26.565Z,413
2022-10-05T07:36:41.345Z,406
2022-10-05T07:41:56.253Z,394
2022-10-05T07:47:11.236Z,399
2022-10-05T07:52:29.998Z,412
2022-10-05T07:57:42.807Z,434
2022-10-05T08:02:57.780Z,383
2022-10-05T08:07:53.820Z,399
2022-10-05T08:13:30.660Z,438
2022-10-05T08:18:46.782Z,448
2022-10-05T08:23:12.945Z,476
2022-10-05T08:28:03.652Z,493
2022-10-05T08:34:33.349Z,547
2022-10-05T08:39:00.138Z,683
2022-10-05T08:43:51.843Z,685
2022-10-05T08:49:01.631Z,714
2022-10-05T08:54:10.075Z,702
2022-10-05T08:59:19.835Z,711
2022-10-05T09:04:28.352Z,716
2022-10-05T09:10:42.715Z,749
2022-10-05T09:15:59.330Z,803
2022-10-05T09:21:16.784Z,790
2022-10-05T09:26:33.058Z,903
2022-10-05T09:31:49.371Z,946
2022-10-05T09:36:16.493Z,987
2022-10-05T09:40:45.165Z,996
2022-10-05T09:46:01.394Z,1121
2022-10-05T09:51:17.574Z,1103
2022-10-05T10:02:13.371Z,1073
2022-10-05T10:07:11.086Z,1060
2022-10-05T10:12:28.522Z,1120
2022-10-05T10:17:44.839Z,1132
2022-10-05T10:22:10.859Z,1070
2022-10-05T10:27:01.271Z,1077
2022-10-05T10:32:11.029Z,1074
2022-10-05T10:37:20.162Z,999
2022-10-05T10:42:29.930Z,978
2022-10-05T10:47:39.672Z,1008
2022-10-05T10:52:47.520Z,1108
2022-10-05T10:57:57.279Z,1052
2022-10-05T11:03:08.777Z,1171
2022-10-05T11:08:17.468Z,1213
2022-10-05T11:13:30.441Z,1173
2022-10-05T11:18:59.288Z,1143
2022-10-05T11:24:07.837Z,1152
2022-10-05T11:29:17.631Z,1038
2022-10-05T11:34:29.944Z,765
2022-10-05T11:39:39.688Z,1050
2022-10-05T11:44:48.154Z,916
2022-10-05T11:50:03.094Z,747
2022-10-05T11:55:12.621Z,681
2022-10-05T12:00:19.372Z,676
2022-10-05T12:05:29.135Z,624
2022-10-05T12:10:38.891Z,625
2022-10-05T12:15:49.426Z,587
2022-10-05T12:20:58.945Z,604
2022-10-05T12:26:16.360Z,574
2022-10-05T12:31:33.218Z,554
2022-10-05T12:37:05.123Z,554
2022-10-05T12:52:36.387Z,511
2022-10-05T13:13:39.097Z,460
2022-10-05T13:18:54.705Z,455
2022-10-05T13:45:11.568Z,381
2022-10-05T13:55:43.256Z,352
2022-10-05T14:00:58.139Z,334
2022-10-05T14:06:14.355Z,320
2022-10-05T14:10:39.177Z,315
2022-10-05T14:15:54.704Z,292
2022-10-05T14:20:19.675Z,284
2022-10-05T14:25:53.292Z,266
2022-10-05T14:30:53.481Z,257
2022-10-05T14:36:05.497Z,250
2022-10-05T14:41:21.048Z,241
2022-10-05T14:45:47.349Z,232
2022-10-05T14:50:40.833Z,227
2022-10-05T14:55:54.333Z,221
2022-10-05T15:01:03.083Z,213
2022-10-05T15:06:15.084Z,210
2022-10-05T15:11:23.694Z,200
2022-10-05T15:16:32.949Z,195
2022-10-05T15:21:42.603Z,193
2022-10-05T15:26:52.968Z,187
2022-10-05T15:32:01.472Z,186
2022-10-05T15:37:09.918Z,181
2022-10-05T15:42:20.312Z,177
2022-10-05T15:47:28.802Z,173
2022-10-05T15:52:38.559Z,166
2022-10-05T15:57:50.262Z,154
2022-10-05T16:02:58.722Z,169
2022-10-05T16:08:11.043Z,157
2022-10-05T16:13:24.636Z,189
2022-10-05T16:18:34.509Z,186
2022-10-05T16:23:43.516Z,157
2022-10-05T16:28:53.945Z,153
2022-10-05T16:34:03.675Z,98
2022-10-05T16:39:14.726Z,72
2022-10-05T16:44:23.193Z,54
2022-10-05T16:49:32.986Z,37
2022-10-05T16:54:48.408Z,32
2022-10-05T16:59:49.920Z,25
2022-10-05T17:05:03.282Z,15
2022-10-05T17:10:18.786Z,9
2022-10-05T17:15:35.008Z,5
2022-10-05T17:20:49.815Z,2
2022-10-05T17:26:04.722Z,0
2022-10-05T17:31:19.687Z,0
2022-10-05T17:36:35.129Z,0
2022-10-05T17:41:50.618Z,0
2022-10-05T17:47:07.459Z,0
2022-10-05T17:52:24.846Z,0
2022-10-05T17:57:40.846Z,0
2022-10-05T18:02:07.247Z,0
2022-10-05T18:06:58.075Z,0
2022-10-05T18:12:07.199Z,0
2022-10-05T18:17:16.958Z,0
2022-10-05T18:22:26.717Z,0
2022-10-05T18:27:37.654Z,0
2022-10-05T18:32:44.320Z,0
2022-10-05T18:37:58.824Z,0
2022-10-05T18:43:17.924Z,0
2022-10-05T18:48:29.954Z,0
2022-10-05T18:53:46.017Z,0
2022-10-05T18:59:02.133Z,0
2022-10-05T19:04:16.389Z,0
2022-10-05T19:09:32.572Z,0
2022-10-05T19:14:48.061Z,0
2022-10-05T19:20:04.216Z,0
2022-10-05T19:25:19.096Z,0
2022-10-05T19:29:24.648Z,0
2022-10-05T19:34:33.758Z,0
2022-10-05T19:39:42.881Z,0
2022-10-05T19:44:52.658Z,0
2022-10-05T19:50:01.118Z,0
2022-10-05T19:55:15.359Z,0
2022-10-05T20:00:23.850Z,0
2022-10-05T20:05:32.395Z,0
2022-10-05T20:10:41.429Z,0
2022-10-05T20:15:51.633Z,0
2022-10-05T20:21:00.960Z,0
2022-10-05T20:26:10.718Z,0
2022-10-05T20:31:20.862Z,0
2022-10-05T20:36:48.167Z,0
2022-10-05T20:41:57.349Z,0
2022-10-05T20:47:07.936Z,0
2022-10-05T20:52:16.162Z,0
2022-10-05T20:57:27.553Z,0
2022-10-05T21:02:44.295Z,0
2022-10-05T21:08:01.644Z,0
2022-10-05T21:13:18.445Z,0
2022-10-05T21:18:35.885Z,0
2022-10-05T21:23:52.203Z,0
2022-10-05T21:29:12.239Z,0
2022-10-05T21:34:25.640Z,0
2022-10-05T21:38:52.610Z,0
2022-10-05T21:44:10.520Z,0
2022-10-05T21:49:00.318Z,0
2022-10-05T21:54:08.798Z,0
2022-10-05T21:59:17.272Z,0
2022-10-05T22:04:26.415Z,0
2022-10-05T22:09:34.886Z,0
2022-10-05T22:14:43.358Z,0
2022-10-05T22:19:53.116Z,0
2022-10-05T22:25:02.232Z,0
2022-10-05T22:30:11.382Z,0
2022-10-05T22:35:20.474Z,0
2022-10-05T22:40:29.605Z,0
2022-10-05T22:45:38.356Z,0
2022-10-05T22:50:45.968Z,0
2022-10-05T22:55:54.397Z,0
2022-10-05T23:01:03.961Z,0
2022-10-05T23:06:13.273Z,0
2022-10-05T23:11:25.810Z,0
2022-10-05T23:16:40.788Z,0
2022-10-05T23:21:56.225Z,0
2022-10-05T23:27:11.101Z,0
2022-10-05T23:32:26.722Z,0
2022-10-05T23:37:41.497Z,0
2022-10-05T23:42:59.081Z,0
2022-10-05T23:48:16.728Z,0
2022-10-05T23:53:33.969Z,0
2022-10-05T23:58:50.760Z,0
